Aledo, IL (61231)

12:08 AM CDT on August 26, 2016 (GMT -0500)
NW Aledo Illinois | | Change Station

Elev 720 ft 41.21 °N, 90.76 °W | Updated 12 minutes ago

Partly Cloudy
Partly Cloudy
65.3 °F
Feels Like 65.3 °F
N
0.0
Wind Variable Wind from North
Gusts 0.0 mph

Today
High -- | Low -- °F
--% Chance of Precip.
Yesterday
High -- | Low -- °F
Precip. -- in
Pressure 30.10 in
Visibility 10.0 miles
Clouds Few 11000 ft
Dew Point 63 °F
Humidity 93%
Rainfall in
Snow Depth Not available.
6:24 AM 7:44 PM
Last Quarter, 38% visible
METAR KMLI 260452Z AUTO 00000KT 10SM FEW110 18/17 A3010 RMK AO2 SLP191 T01830167
Pressure 30.10 in
Visibility 10.0 miles
Clouds Few 11000 ft
Dew Point 63 °F
Humidity 93%
Rainfall in
Snow Depth Not available.
6:24 AM 7:44 PM
Last Quarter, 38% visible
METAR KMLI 260452Z AUTO 00000KT 10SM FEW110 18/17 A3010 RMK AO2 SLP191 T01830167
A tropical disturbance pushing toward the Bahamas, is expected to develop into a tropical depression or storm, and will likely target Florida and the Gulf Coast this weekend into next week.

Right now, the disturbance remains a broad area of low pressure pushing through the Dominican Republic and Haiti, headed toward the southeast Bahamas. Rainfall totals over 3 inches (with locally higher amounts) are expected in HispaƱiola, particularly over elevated terrain.

10-Day Weather Forecast

Almanac

Astronomy

Aug. 26, 2016 Rise Set
Actual Time
Civil Twilight
Nautical Twilight
Astronomical Twilight
Moon
Length of Visible Light
Length of Day
Tomorrow will be .
, % of the Moon is Illuminated

Today's Extremes

State Highs State Lows

Community

WunderPhotos

Upload Photos

1,935,057 photos uploaded!

WunderBlog® & News

Nearby

Air Quality

  Air Quality AQ Index Pollutant
Not available.

Snow Depth

Station Depth Elevation

Earthquake Activity

City Distance Mag. Time & Date
Minimum magnitude displayed is 2.5.

Coastal Water Temperatures

Place Temperature

Stations

Nearby Weather Stations

Station Location Temp. Windchill Dew Point Humidity Wind Precip. Elev Updated Type
                   

Watches & Warnings

There are currently no watches in effect.